Time;durP1;ratioP1;P1;durP2;ratioP2;P2;SDS_P1;SDS_P2;PMS_P1;PMS_P2;Temp;Humidity;BMP_temperature;BMP_pressure;BME280_temperature;BME280_humidity;BME280_pressure;Samples;Min_cycle;Max_cycle;Signal;HPM_P1;HPM_P2
2021/12/06 00:00:32;;;;;;;47.35;30.27;;;;;;;2.93;99.78;101114.06;5044673;28;20101;-63
2021/12/06 00:03:01;;;;;;;46.83;30.33;;;;;;;2.95;99.97;101120.16;5046147;28;20049;-63
2021/12/06 00:05:27;;;;;;;47.28;29.15;;;;;;;2.99;100.00;101120.63;5041795;28;20030;-62
2021/12/06 00:07:54;;;;;;;44.85;28.67;;;;;;;3.00;99.90;101125.91;5025469;28;20033;-63
2021/12/06 00:10:19;;;;;;;46.08;28.70;;;;;;;3.02;99.86;101123.84;5026919;28;20037;-63
2021/12/06 00:12:45;;;;;;;47.55;29.42;;;;;;;3.05;100.00;101133.53;5045726;28;20029;-63
2021/12/06 00:15:13;;;;;;;47.83;29.50;;;;;;;3.07;100.00;101126.91;5044640;28;20945;-62
2021/12/06 00:17:38;;;;;;;47.30;30.30;;;;;;;3.10;100.00;101123.00;5026581;28;20388;-63
2021/12/06 00:20:07;;;;;;;46.22;29.55;;;;;;;3.11;100.00;101127.41;5024031;28;20025;-63
2021/12/06 00:22:33;;;;;;;51.63;31.17;;;;;;;3.11;100.00;101133.66;5025085;28;20042;-63
2021/12/06 00:24:59;;;;;;;52.33;30.65;;;;;;;3.15;100.00;101145.03;5025446;28;20045;-63
2021/12/06 00:27:26;;;;;;;54.00;31.75;;;;;;;3.15;100.00;101142.31;5044333;28;20397;-63
2021/12/06 00:29:52;;;;;;;47.88;30.70;;;;;;;3.15;100.00;101141.47;5031310;28;20370;-63
2021/12/06 00:32:17;;;;;;;49.17;30.55;;;;;;;3.15;100.00;101134.19;5023521;28;20036;-63
2021/12/06 00:34:42;;;;;;;48.05;30.10;;;;;;;3.13;100.00;101142.47;5025473;28;20131;-63
2021/12/06 00:37:28;;;;;;;50.67;29.83;;;;;;;3.12;100.00;101146.22;5024959;28;20083;-63
2021/12/06 00:39:57;;;;;;;44.15;27.80;;;;;;;3.22;99.84;101142.47;5025524;28;20033;-63
2021/12/06 00:42:27;;;;;;;46.53;28.63;;;;;;;3.20;99.25;101152.66;5025075;28;20107;-63
2021/12/06 00:44:53;;;;;;;51.08;29.85;;;;;;;3.15;99.70;101153.19;5037527;28;20396;-63
2021/12/06 00:47:19;;;;;;;47.28;29.17;;;;;;;3.14;100.00;101162.31;5025008;28;20040;-63
2021/12/06 00:49:45;;;;;;;46.92;29.13;;;;;;;3.13;100.00;101175.03;5031388;28;20384;-63
2021/12/06 00:52:11;;;;;;;45.88;29.40;;;;;;;3.12;100.00;101177.94;5027464;28;20531;-63
2021/12/06 00:54:37;;;;;;;49.55;29.63;;;;;;;3.11;100.00;101171.66;5025449;28;20021;-64
2021/12/06 00:57:08;;;;;;;44.78;28.95;;;;;;;3.10;99.92;101183.53;5024268;28;20029;-65
2021/12/06 00:59:35;;;;;;;51.90;30.67;;;;;;;3.09;99.89;101184.56;5025450;28;20029;-63
2021/12/06 01:02:00;;;;;;;47.67;29.92;;;;;;;3.09;100.00;101203.56;5036580;28;20078;-63
2021/12/06 01:04:30;;;;;;;46.92;28.58;;;;;;;3.09;100.00;101206.28;5045115;28;20140;-63
2021/12/06 01:06:57;;;;;;;45.55;28.20;;;;;;;3.08;99.92;101210.00;5024416;28;20049;-63
2021/12/06 01:09:22;;;;;;;45.22;28.25;;;;;;;3.07;100.00;101211.00;5023648;28;20033;-63
2021/12/06 01:11:48;;;;;;;49.90;30.50;;;;;;;3.08;100.00;101218.13;5044304;28;20040;-63
2021/12/06 01:14:13;;;;;;;47.67;28.50;;;;;;;3.09;100.00;101217.13;5044274;28;20056;-62
2021/12/06 01:16:39;;;;;;;49.30;30.50;;;;;;;3.09;100.00;101205.41;5025324;28;20080;-63
2021/12/06 01:19:04;;;;;;;48.78;29.80;;;;;;;3.09;100.00;101200.84;5024933;28;20056;-63
2021/12/06 01:21:47;;;;;;;46.63;29.35;;;;;;;3.10;100.00;101199.81;5024949;28;20029;-64
2021/12/06 01:24:15;;;;;;;49.80;28.77;;;;;;;3.24;99.04;101197.41;5023625;28;20033;-62
2021/12/06 01:30:01;;;;;;;50.35;29.88;;;;;;;3.17;99.32;101207.28;4978253;28;20062;-62
2021/12/06 01:33:02;;;;;;;51.10;31.73;;;;;;;3.13;99.59;101213.03;4963672;28;20026;-63
2021/12/06 01:40:40;;;;;;;48.97;30.33;;;;;;;3.06;99.54;101212.03;5025038;28;20187;-63
2021/12/06 01:43:06;;;;;;;52.15;30.60;;;;;;;3.05;99.86;101221.22;5044195;28;20108;-63
2021/12/06 01:45:32;;;;;;;52.35;30.30;;;;;;;3.02;100.00;101221.53;5026264;28;20033;-63
2021/12/06 01:47:57;;;;;;;50.78;30.00;;;;;;;3.03;99.91;101223.22;5031338;28;20032;-63
2021/12/06 01:50:28;;;;;;;47.10;28.83;;;;;;;3.03;100.00;101228.66;5034100;28;20048;-63
2021/12/06 01:52:57;;;;;;;49.85;29.60;;;;;;;2.99;100.00;101227.34;5019337;28;20134;-63
2021/12/06 01:55:26;;;;;;;48.17;30.25;;;;;;;3.00;99.86;101234.44;5027348;28;20042;-63
2021/12/06 01:57:54;;;;;;;51.08;31.63;;;;;;;3.01;100.00;101232.56;5024045;28;20040;-63
2021/12/06 02:00:29;;;;;;;48.88;29.17;;;;;;;3.01;100.00;101236.13;5037107;28;20124;-63
2021/12/06 02:02:54;;;;;;;49.47;30.67;;;;;;;3.02;100.00;101236.97;5029396;28;20056;-62
2021/12/06 02:05:19;;;;;;;57.40;31.08;;;;;;;3.04;100.00;101230.38;5029995;28;20058;-63
2021/12/06 02:07:45;;;;;;;52.63;30.77;;;;;;;3.04;100.00;101234.94;5040437;28;20715;-63
2021/12/06 02:10:10;;;;;;;54.83;30.02;;;;;;;3.06;100.00;101241.03;5022457;28;20040;-63
2021/12/06 02:12:36;;;;;;;53.17;32.03;;;;;;;3.05;100.00;101242.06;5038034;28;20021;-63
2021/12/06 02:15:19;;;;;;;51.92;31.48;;;;;;;3.04;100.00;101235.81;5029790;28;20056;-68
2021/12/06 02:17:54;;;;;;;49.40;30.27;;;;;;;3.05;99.84;101239.34;5024131;28;20034;-63
2021/12/06 02:20:26;;;;;;;52.70;32.08;;;;;;;3.05;99.95;101240.19;5023440;28;20021;-63
2021/12/06 02:22:52;;;;;;;52.72;30.38;;;;;;;3.04;100.00;101246.66;5029255;28;20080;-63
2021/12/06 02:25:19;;;;;;;55.65;31.52;;;;;;;3.02;100.00;101245.97;5023542;28;20060;-63
2021/12/06 02:27:45;;;;;;;56.03;31.00;;;;;;;3.01;99.98;101247.00;5024109;28;20053;-63
2021/12/06 02:30:14;;;;;;;51.17;31.08;;;;;;;3.00;99.87;101247.16;5032163;28;20107;-62
2021/12/06 02:32:39;;;;;;;50.17;30.05;;;;;;;3.00;99.89;101252.59;5034605;28;20395;-62
2021/12/06 02:35:11;;;;;;;49.42;30.20;;;;;;;3.00;100.00;101258.88;5023764;28;20116;-63
2021/12/06 02:37:37;;;;;;;50.97;31.83;;;;;;;3.01;99.94;101265.13;5022704;28;20034;-62
2021/12/06 02:40:11;;;;;;;48.95;29.83;;;;;;;3.01;100.00;101265.97;5027274;28;20435;-63
2021/12/06 02:42:38;;;;;;;51.28;31.65;;;;;;;3.00;100.00;101272.44;5043104;28;20437;-63
2021/12/06 02:45:05;;;;;;;50.83;31.30;;;;;;;2.98;100.00;101269.03;5032065;28;20503;-63
2021/12/06 02:47:30;;;;;;;48.00;28.75;;;;;;;2.99;99.95;101278.00;5027913;28;20057;-63
2021/12/06 02:49:55;;;;;;;51.53;30.70;;;;;;;2.97;100.00;101280.91;5039485;28;20517;-63
2021/12/06 02:52:21;;;;;;;47.90;29.02;;;;;;;2.97;100.00;101277.34;5046287;28;20147;-62
2021/12/06 02:54:55;;;;;;;49.72;29.00;;;;;;;2.96;99.96;101276.50;5037705;28;20073;-63
2021/12/06 02:57:31;;;;;;;50.58;29.80;;;;;;;2.96;100.00;101281.09;5029214;28;20111;-63
2021/12/06 02:59:57;;;;;;;50.63;29.35;;;;;;;2.95;99.91;101285.66;5028333;28;20025;-62
2021/12/06 03:02:22;;;;;;;50.78;30.15;;;;;;;2.95;100.00;101284.81;5029589;28;20372;-63
2021/12/06 03:04:47;;;;;;;52.60;30.90;;;;;;;2.95;100.00;101290.25;5044938;28;20037;-63
2021/12/06 03:07:15;;;;;;;53.40;30.10;;;;;;;2.94;100.00;101280.38;5042374;22;20106;-63
2021/12/06 03:09:41;;;;;;;50.58;30.48;;;;;;;2.94;100.00;101281.25;5044434;28;20029;-62
2021/12/06 03:12:19;;;;;;;54.38;30.35;;;;;;;2.95;100.00;101291.09;5046660;28;20029;-63
2021/12/06 03:14:51;;;;;;;50.05;30.10;;;;;;;2.94;100.00;101285.81;5044524;28;20116;-63
2021/12/06 03:17:19;;;;;;;52.72;30.90;;;;;;;2.94;100.00;101286.69;5046350;28;20028;-63
2021/12/06 03:19:45;;;;;;;54.28;31.70;;;;;;;2.96;100.00;101291.94;5045767;28;20368;-63
2021/12/06 03:22:12;;;;;;;53.15;32.03;;;;;;;2.96;100.00;101292.78;5045116;28;20090;-63
2021/12/06 03:24:38;;;;;;;55.00;31.33;;;;;;;2.97;100.00;101291.75;5044941;28;20031;-63
2021/12/06 03:27:04;;;;;;;55.63;31.63;;;;;;;2.96;100.00;101284.63;5027223;28;20426;-64
2021/12/06 03:29:30;;;;;;;55.72;31.25;;;;;;;2.96;100.00;101294.66;5035478;28;20111;-63
2021/12/06 03:31:56;;;;;;;54.47;30.88;;;;;;;2.95;100.00;101290.25;5045619;28;20159;-63
2021/12/06 03:34:26;;;;;;;54.17;31.60;;;;;;;2.94;100.00;101288.53;5046437;28;20139;-63
2021/12/06 03:36:53;;;;;;;53.50;29.80;;;;;;;2.93;100.00;101294.97;5044693;28;20036;-63
2021/12/06 03:39:23;;;;;;;49.28;29.08;;;;;;;2.89;100.00;101294.50;5038972;28;20028;-63
2021/12/06 03:41:51;;;;;;;51.13;29.45;;;;;;;2.90;100.00;101298.88;5031106;28;20040;-63
2021/12/06 03:44:18;;;;;;;48.35;29.35;;;;;;;2.88;100.00;101295.47;5036278;28;20060;-63
2021/12/06 03:46:45;;;;;;;51.60;29.75;;;;;;;2.89;100.00;101299.91;5041823;28;20487;-63
2021/12/06 03:49:13;;;;;;;49.33;28.85;;;;;;;2.87;100.00;101304.66;5036834;28;20025;-63
2021/12/06 03:51:38;;;;;;;47.97;28.75;;;;;;;2.88;100.00;101303.63;5025822;28;20021;-63
2021/12/06 03:54:04;;;;;;;50.65;29.00;;;;;;;2.83;100.00;101293.28;5033354;28;20024;-63
2021/12/06 03:56:30;;;;;;;44.95;25.13;;;;;;;2.79;100.00;101310.94;5045755;28;20060;-63
2021/12/06 03:58:56;;;;;;;46.97;26.52;;;;;;;2.76;100.00;101310.41;5045590;28;20025;-63
2021/12/06 04:01:22;;;;;;;44.25;27.35;;;;;;;2.74;100.00;101301.59;5046449;28;20879;-63
2021/12/06 04:03:48;;;;;;;47.45;28.02;;;;;;;2.72;100.00;101301.75;5029415;28;20037;-63
2021/12/06 04:06:14;;;;;;;44.63;26.67;;;;;;;2.72;100.00;101300.91;5035716;28;20025;-63
2021/12/06 04:08:40;;;;;;;48.80;27.73;;;;;;;2.69;100.00;101301.25;5042007;28;20057;-63
2021/12/06 04:11:05;;;;;;;47.00;27.42;;;;;;;2.68;100.00;101302.25;5044813;28;20044;-63
2021/12/06 04:13:31;;;;;;;45.72;27.75;;;;;;;2.65;100.00;101295.31;5045519;28;20025;-64
2021/12/06 04:15:57;;;;;;;46.97;28.25;;;;;;;2.65;100.00;101302.59;5046550;28;20021;-63
2021/12/06 04:18:23;;;;;;;46.25;27.98;;;;;;;2.64;100.00;101315.31;5044382;28;20399;-63
2021/12/06 04:20:48;;;;;;;47.08;26.85;;;;;;;2.67;100.00;101317.69;5045600;28;20033;-63
2021/12/06 04:23:14;;;;;;;48.55;28.77;;;;;;;2.67;100.00;101308.69;5029036;28;20033;-63
2021/12/06 04:25:39;;;;;;;46.67;27.83;;;;;;;2.66;100.00;101305.13;5037295;28;20025;-63
2021/12/06 04:28:07;;;;;;;55.05;29.95;;;;;;;2.65;100.00;101308.03;5045456;28;20027;-63
2021/12/06 04:30:35;;;;;;;53.53;29.80;;;;;;;2.63;100.00;101301.91;5035346;28;20029;-63
2021/12/06 04:33:01;;;;;;;54.50;31.17;;;;;;;2.59;100.00;101306.84;5028642;28;20034;-63
2021/12/06 04:35:28;;;;;;;53.10;29.77;;;;;;;2.53;100.00;101308.31;5042465;28;20017;-63
2021/12/06 04:37:54;;;;;;;52.35;31.70;;;;;;;2.48;100.00;101310.69;5042481;28;20033;-63
2021/12/06 04:40:19;;;;;;;52.40;30.73;;;;;;;2.43;100.00;101314.91;5028882;28;20511;-63
2021/12/06 04:42:45;;;;;;;54.35;30.38;;;;;;;2.37;100.00;101313.72;5044973;28;20091;-63
2021/12/06 04:45:12;;;;;;;64.53;34.55;;;;;;;2.30;100.00;101312.69;5045505;28;20028;-63
2021/12/06 04:47:39;;;;;;;54.87;31.70;;;;;;;2.27;100.00;101313.03;5039133;28;20045;-63
2021/12/06 04:50:07;;;;;;;53.13;29.02;;;;;;;2.15;100.00;101323.31;5028463;28;20298;-63
2021/12/06 04:52:34;;;;;;;48.72;29.08;;;;;;;2.08;100.00;101322.28;5044896;28;20036;-63
2021/12/06 04:55:02;;;;;;;51.13;29.40;;;;;;;2.00;100.00;101328.50;5044359;28;20037;-63
2021/12/06 04:57:33;;;;;;;;;;;;;;;2.02;100.00;101331.91;5045043;28;20036;-63
2021/12/06 05:00:11;;;;;;;48.40;28.65;;;;;;;1.89;100.00;101331.53;5043627;28;19917;-65
2021/12/06 05:02:39;;;;;;;52.83;30.27;;;;;;;1.78;100.00;101334.53;5044554;28;20075;-63
2021/12/06 05:05:10;;;;;;;51.47;29.48;;;;;;;1.73;100.00;101329.59;5044598;28;20111;-63
2021/12/06 05:07:41;;;;;;;46.80;28.33;;;;;;;1.62;100.00;101337.13;5043142;28;20041;-63
2021/12/06 05:10:08;;;;;;;44.65;26.95;;;;;;;1.48;99.83;101341.28;5035810;28;20044;-63
2021/12/06 05:12:35;;;;;;;52.08;29.13;;;;;;;1.44;99.73;101338.03;5040926;28;20025;-63
2021/12/06 05:15:00;;;;;;;49.50;28.50;;;;;;;1.41;100.00;101346.47;5035301;28;20036;-63
2021/12/06 05:17:28;;;;;;;52.50;28.70;;;;;;;1.37;100.00;101344.22;5042534;28;20037;-64
2021/12/06 05:19:54;;;;;;;47.38;28.13;;;;;;;1.29;100.00;101345.88;5036276;28;20112;-63
2021/12/06 05:22:20;;;;;;;53.13;26.88;;;;;;;1.24;100.00;101347.38;5037983;28;20116;-63
2021/12/06 05:24:46;;;;;;;48.83;26.75;;;;;;;1.15;100.00;101351.84;5044021;28;20078;-63
2021/12/06 05:27:11;;;;;;;70.15;26.95;;;;;;;1.07;100.00;101354.50;5042944;28;20506;-63
2021/12/06 05:29:37;;;;;;;50.20;24.65;;;;;;;1.01;100.00;101352.41;5043733;28;20032;-63
2021/12/06 05:32:03;;;;;;;49.65;27.73;;;;;;;0.98;100.00;101359.00;5043464;28;20043;-66
2021/12/06 05:34:38;;;;;;;68.32;28.15;;;;;;;0.89;100.00;101350.97;5027826;28;20139;-68
2021/12/06 05:37:09;;;;;;;70.18;27.13;;;;;;;0.84;100.00;101351.44;5027091;28;20021;-63
2021/12/06 05:39:35;;;;;;;53.72;30.63;;;;;;;0.79;100.00;101348.34;5028316;28;20048;-63
2021/12/06 05:42:05;;;;;;;69.10;28.40;;;;;;;0.73;100.00;101347.09;5043607;28;20116;-63
2021/12/06 05:44:31;;;;;;;263.00;36.83;;;;;;;0.69;100.00;101350.25;5041033;28;20519;-63
2021/12/06 05:46:57;;;;;;;182.98;36.33;;;;;;;0.65;100.00;101347.00;5032715;28;20029;-63
2021/12/06 05:49:22;;;;;;;163.48;32.65;;;;;;;0.62;100.00;101349.19;5032761;28;20033;-62
2021/12/06 05:51:48;;;;;;;49.75;28.48;;;;;;;0.62;100.00;101344.63;5032660;28;20029;-63
2021/12/06 05:54:13;;;;;;;87.68;28.10;;;;;;;0.53;100.00;101348.25;5043139;28;20126;-63
2021/12/06 05:56:39;;;;;;;76.25;26.52;;;;;;;0.43;100.00;101348.31;5041877;28;20033;-62
2021/12/06 05:59:04;;;;;;;47.25;26.95;;;;;;;0.40;100.00;101347.75;5040363;28;20029;-63
2021/12/06 06:01:30;;;;;;;44.22;24.67;;;;;;;0.35;100.00;101350.91;5022462;28;20480;-63
2021/12/06 06:04:01;;;;;;;203.77;34.28;;;;;;;0.35;100.00;101364.44;5033167;28;20387;-63
2021/12/06 06:06:32;;;;;;;232.88;35.17;;;;;;;0.36;100.00;101358.03;5034242;28;20523;-62
2021/12/06 06:08:58;;;;;;;136.05;31.08;;;;;;;0.35;100.00;101366.28;5043080;28;20033;-62
2021/12/06 06:11:25;;;;;;;163.27;35.70;;;;;;;0.38;100.00;101366.84;5043220;28;20130;-62
2021/12/06 06:13:51;;;;;;;182.52;38.40;;;;;;;0.42;100.00;101372.78;5029799;28;20060;-62
2021/12/06 06:16:19;;;;;;;88.20;31.15;;;;;;;0.43;100.00;101374.50;5034007;28;20020;-62
2021/12/06 06:18:47;;;;;;;142.10;34.47;;;;;;;0.44;100.00;101387.00;5043044;28;20028;-63
2021/12/06 06:21:12;;;;;;;133.87;35.10;;;;;;;0.45;100.00;101384.13;5031891;28;20032;-63
2021/12/06 06:23:38;;;;;;;137.95;34.83;;;;;;;0.47;100.00;101381.28;5024129;28;20033;-62
2021/12/06 06:26:03;;;;;;;168.07;37.03;;;;;;;0.51;100.00;101385.41;5033942;28;20025;-63
2021/12/06 06:28:28;;;;;;;198.32;38.83;;;;;;;0.51;100.00;101386.25;5033958;28;20159;-64
2021/12/06 06:30:54;;;;;;;175.32;36.85;;;;;;;0.50;100.00;101395.34;5024309;28;20026;-62
2021/12/06 06:33:19;;;;;;;161.48;34.90;;;;;;;0.51;100.00;101388.94;5032247;28;20028;-62
2021/12/06 06:35:45;;;;;;;156.02;34.20;;;;;;;0.54;100.00;101390.50;5041102;28;20071;-62
2021/12/06 06:38:10;;;;;;;189.00;33.50;;;;;;;0.58;100.00;101393.75;5040695;28;20036;-62
2021/12/06 06:40:36;;;;;;;224.68;36.35;;;;;;;0.62;100.00;101389.75;5043131;28;20021;-63
2021/12/06 06:43:02;;;;;;;187.23;35.33;;;;;;;0.66;100.00;101388.41;5042550;28;20033;-68
2021/12/06 06:45:27;;;;;;;171.98;36.80;;;;;;;0.68;100.00;101389.97;5040343;28;20040;-62
2021/12/06 06:47:53;;;;;;;178.02;33.97;;;;;;;0.67;100.00;101390.97;5041334;28;20029;-63
2021/12/06 06:50:20;;;;;;;198.65;38.75;;;;;;;0.72;100.00;101401.34;5041757;28;20025;-63
2021/12/06 06:52:47;;;;;;;213.88;38.22;;;;;;;0.77;100.00;101396.31;5042155;28;20386;-62
2021/12/06 06:55:13;;;;;;;198.20;37.30;;;;;;;0.84;100.00;101394.69;5041034;28;20025;-62
2021/12/06 06:57:40;;;;;;;235.38;39.05;;;;;;;0.89;100.00;101389.66;5043096;28;20082;-62
2021/12/06 07:00:12;;;;;;;172.02;35.72;;;;;;;0.96;100.00;101396.19;5042234;28;20032;-63
2021/12/06 07:02:37;;;;;;;149.80;35.10;;;;;;;1.02;100.00;101398.25;5043125;28;20360;-62
2021/12/06 07:05:04;;;;;;;162.23;34.70;;;;;;;1.06;100.00;101401.47;5029467;28;20235;-63
2021/12/06 07:07:29;;;;;;;140.02;33.10;;;;;;;1.11;100.00;101407.28;5027365;28;20368;-63
2021/12/06 07:09:54;;;;;;;107.85;32.30;;;;;;;1.15;100.00;101405.97;5030337;28;20036;-63
2021/12/06 07:12:20;;;;;;;90.75;31.08;;;;;;;1.19;100.00;101396.53;5041651;28;20098;-62
2021/12/06 07:14:46;;;;;;;128.60;32.58;;;;;;;1.22;100.00;101403.50;5036989;28;20025;-63
2021/12/06 07:17:14;;;;;;;138.95;34.58;;;;;;;1.26;100.00;101405.72;5042813;28;20028;-62
2021/12/06 07:19:39;;;;;;;103.47;32.05;;;;;;;1.31;100.00;101413.38;5042236;28;20013;-63
2021/12/06 07:22:05;;;;;;;75.60;30.48;;;;;;;1.35;100.00;101406.63;5040266;28;20056;-63
2021/12/06 07:24:30;;;;;;;88.68;32.92;;;;;;;1.39;100.00;101418.84;5041620;28;20373;-62
2021/12/06 07:26:56;;;;;;;90.30;34.25;;;;;;;1.42;100.00;101420.38;5040475;28;20111;-62
2021/12/06 07:29:21;;;;;;;108.63;36.05;;;;;;;1.46;100.00;101422.63;5042266;28;20466;-63
2021/12/06 07:31:47;;;;;;;91.57;36.10;;;;;;;1.53;100.00;101422.88;5046132;28;20415;-62
2021/12/06 07:34:12;;;;;;;111.97;37.35;;;;;;;1.54;100.00;101422.69;5044229;28;20495;-61
2021/12/06 07:36:37;;;;;;;99.38;36.92;;;;;;;1.55;100.00;101426.25;5044724;28;20392;-62
2021/12/06 07:39:04;;;;;;;119.90;40.05;;;;;;;1.57;100.00;101440.47;5033581;28;20032;-64
2021/12/06 07:41:29;;;;;;;106.80;40.72;;;;;;;1.60;100.00;101434.75;5046292;28;20096;-64
2021/12/06 07:43:59;;;;;;;113.38;41.80;;;;;;;1.61;100.00;101441.00;5044279;28;20767;-63
2021/12/06 07:46:25;;;;;;;120.05;41.42;;;;;;;1.63;100.00;101447.13;5044015;28;20037;-63
2021/12/06 07:48:54;;;;;;;136.38;40.67;;;;;;;1.63;100.00;101433.59;5046397;28;20111;-63
2021/12/06 07:51:22;;;;;;;161.98;41.85;;;;;;;1.63;100.00;101433.59;5041900;28;20387;-63
2021/12/06 07:53:48;;;;;;;155.75;40.58;;;;;;;1.64;100.00;101429.88;5043379;28;20025;-63
2021/12/06 07:56:13;;;;;;;125.80;37.95;;;;;;;1.61;100.00;101419.34;5031229;28;20042;-63
2021/12/06 07:58:39;;;;;;;134.63;39.78;;;;;;;1.62;100.00;101413.75;5037998;28;20484;-63
2021/12/06 08:01:04;;;;;;;135.00;39.00;;;;;;;1.64;100.00;101428.00;5046018;28;20036;-63
2021/12/06 08:03:31;;;;;;;167.95;41.30;;;;;;;1.62;100.00;101413.75;5045920;28;20076;-63
2021/12/06 08:05:58;;;;;;;124.97;36.00;;;;;;;1.64;100.00;101413.63;5045738;28;20692;-63
2021/12/06 08:08:26;;;;;;;125.10;38.20;;;;;;;1.62;100.00;101402.94;5043886;28;20041;-63
2021/12/06 08:10:57;;;;;;;113.90;38.25;;;;;;;1.64;100.00;101405.50;5042704;28;20405;-63
2021/12/06 08:13:28;;;;;;;103.00;36.75;;;;;;;1.66;100.00;101401.63;5031240;28;20120;-63
2021/12/06 08:15:58;;;;;;;107.85;37.80;;;;;;;1.66;100.00;101403.47;5045224;28;20025;-63
2021/12/06 08:18:23;;;;;;;123.00;36.92;;;;;;;1.68;100.00;101406.91;5045971;28;20021;-63
2021/12/06 08:20:49;;;;;;;101.25;37.53;;;;;;;1.68;100.00;101396.06;5044160;28;20104;-63
2021/12/06 08:23:15;;;;;;;106.85;37.45;;;;;;;1.70;100.00;101400.28;5045469;28;20120;-63
2021/12/06 08:25:44;;;;;;;116.53;38.55;;;;;;;1.70;100.00;101408.41;5043741;28;20490;-63
2021/12/06 08:28:09;;;;;;;95.03;36.05;;;;;;;1.74;100.00;101400.84;5045717;28;20055;-63
2021/12/06 08:30:34;;;;;;;112.95;38.30;;;;;;;1.76;100.00;101404.22;5043665;28;20475;-63
2021/12/06 08:33:02;;;;;;;123.10;40.75;;;;;;;1.78;100.00;101413.91;5045711;28;20029;-63
2021/12/06 08:35:28;;;;;;;;;;;;;;;1.85;100.00;101414.09;5046493;28;20071;-63
2021/12/06 08:37:59;;;;;;;105.35;39.40;;;;;;;1.84;100.00;101409.69;5044736;28;19917;-63
2021/12/06 08:40:26;;;;;;;103.22;40.97;;;;;;;1.88;100.00;101421.06;5043731;28;20048;-63
2021/12/06 08:42:52;;;;;;;106.03;39.13;;;;;;;1.91;100.00;101420.72;5035803;28;20526;-63
2021/12/06 08:45:17;;;;;;;95.45;39.97;;;;;;;1.94;100.00;101436.69;5043972;28;20138;-64
2021/12/06 08:47:43;;;;;;;103.47;39.83;;;;;;;1.97;100.00;101431.75;5027470;28;20044;-63
2021/12/06 08:50:15;;;;;;;115.10;44.33;;;;;;;1.98;100.00;101438.06;5041943;28;20040;-62
2021/12/06 08:52:40;;;;;;;138.27;42.75;;;;;;;1.96;100.00;101443.63;5038060;28;20448;-64
2021/12/06 08:55:08;;;;;;;126.20;41.92;;;;;;;1.96;100.00;101446.31;5035553;28;20025;-63
2021/12/06 08:57:34;;;;;;;109.50;40.67;;;;;;;1.94;100.00;101440.22;5037924;28;20060;-62
2021/12/06 08:59:59;;;;;;;115.13;41.97;;;;;;;1.94;100.00;101445.66;5042420;28;20049;-63
2021/12/06 09:02:24;;;;;;;107.07;42.92;;;;;;;1.92;100.00;101446.81;5035718;28;20059;-63
2021/12/06 09:04:49;;;;;;;126.80;43.97;;;;;;;1.94;100.00;101448.34;5033806;28;20025;-62
2021/12/06 09:07:18;;;;;;;123.63;43.53;;;;;;;1.98;100.00;101446.19;5037670;28;20045;-63
2021/12/06 09:09:46;;;;;;;115.95;42.60;;;;;;;1.98;100.00;101449.75;5037165;28;20059;-63
2021/12/06 09:12:31;;;;;;;120.43;42.10;;;;;;;2.00;100.00;101449.56;5039502;28;20040;-63
2021/12/06 09:15:00;;;;;;;113.68;44.13;;;;;;;1.98;100.00;101449.75;5040951;28;20052;-63
2021/12/06 09:17:26;;;;;;;115.05;42.42;;;;;;;2.03;100.00;101441.13;5036633;28;20023;-63
2021/12/06 09:19:51;;;;;;;116.90;44.55;;;;;;;2.09;100.00;101445.91;5039688;28;20029;-62
2021/12/06 09:22:18;;;;;;;113.90;44.63;;;;;;;2.13;100.00;101449.13;5039270;28;20546;-62
2021/12/06 09:24:43;;;;;;;115.70;46.35;;;;;;;2.18;100.00;101449.50;5037674;28;20036;-62
2021/12/06 09:27:09;;;;;;;100.60;43.40;;;;;;;2.24;100.00;101452.44;5035057;28;20396;-63
2021/12/06 09:29:36;;;;;;;112.65;43.47;;;;;;;2.28;100.00;101450.22;5036187;28;20035;-63
2021/12/06 09:32:07;;;;;;;112.50;45.40;;;;;;;2.28;100.00;101444.81;5040928;28;20783;-64
2021/12/06 09:34:33;;;;;;;116.30;47.17;;;;;;;2.27;100.00;101453.94;5037167;28;20017;-63
2021/12/06 09:36:59;;;;;;;112.03;45.33;;;;;;;2.33;100.00;101451.47;5043280;28;20032;-63
2021/12/06 09:39:25;;;;;;;115.10;46.33;;;;;;;2.35;100.00;101451.28;5038588;28;20013;-63
2021/12/06 09:41:51;;;;;;;110.30;45.50;;;;;;;2.36;100.00;101444.84;5036043;28;20036;-63
2021/12/06 09:44:17;;;;;;;99.00;43.78;;;;;;;2.38;100.00;101440.09;5035243;28;20032;-63
2021/12/06 09:46:42;;;;;;;100.25;42.55;;;;;;;2.39;100.00;101446.41;5045767;28;20033;-63
2021/12/06 09:49:13;;;;;;;107.30;41.30;;;;;;;2.39;100.00;101447.25;5041899;28;20116;-63
2021/12/06 09:51:41;;;;;;;104.35;43.25;;;;;;;2.39;100.00;101444.53;5041594;28;20025;-63
2021/12/06 09:54:08;;;;;;;92.30;40.40;;;;;;;2.41;100.00;101458.78;5043362;28;20117;-63
2021/12/06 09:56:40;;;;;;;94.78;40.95;;;;;;;2.37;100.00;101451.97;5034199;28;20033;-62
2021/12/06 09:59:09;;;;;;;100.25;42.53;;;;;;;2.37;100.00;101457.38;5035148;28;20028;-63
2021/12/06 10:01:57;;;;;;;100.72;42.20;;;;;;;2.40;100.00;101456.22;5034891;28;20040;-63
2021/12/06 10:04:25;;;;;;;97.40;40.67;;;;;;;2.40;100.00;101451.66;5032791;28;20056;-63
2021/12/06 10:06:52;;;;;;;99.53;42.20;;;;;;;2.41;100.00;101450.63;5040694;28;20041;-63
2021/12/06 10:09:18;;;;;;;102.90;42.50;;;;;;;2.43;100.00;101443.19;5042270;28;20041;-63
2021/12/06 10:11:44;;;;;;;90.90;39.58;;;;;;;2.44;100.00;101447.63;5043829;28;20029;-63
2021/12/06 10:14:10;;;;;;;85.93;38.33;;;;;;;2.47;100.00;101431.00;5029238;28;20478;-62
2021/12/06 10:16:37;;;;;;;81.00;36.63;;;;;;;2.52;100.00;101428.66;5039313;28;20028;-63
2021/12/06 10:19:05;;;;;;;81.70;37.55;;;;;;;2.51;100.00;101429.66;5038336;28;20021;-68
2021/12/06 10:21:32;;;;;;;83.72;37.53;;;;;;;2.55;100.00;101422.06;5038987;28;20017;-63
2021/12/06 10:23:58;;;;;;;84.13;36.58;;;;;;;2.54;100.00;101414.94;5040657;28;20025;-63
2021/12/06 10:26:28;;;;;;;85.63;36.97;;;;;;;2.55;100.00;101406.63;5043362;28;20060;-63
2021/12/06 10:28:59;;;;;;;87.13;36.95;;;;;;;2.55;100.00;101406.63;5030400;28;20017;-63
2021/12/06 10:31:26;;;;;;;80.10;34.45;;;;;;;2.56;100.00;101400.19;5034509;28;20061;-63
2021/12/06 10:33:52;;;;;;;90.78;35.47;;;;;;;2.53;100.00;101400.50;5043181;28;20030;-63
2021/12/06 10:36:19;;;;;;;87.13;36.05;;;;;;;2.50;100.00;101408.16;5038902;28;20033;-63
2021/12/06 10:38:53;;;;;;;89.25;36.33;;;;;;;2.51;100.00;101410.69;5038740;28;20025;-63
2021/12/06 10:41:22;;;;;;;87.13;37.13;;;;;;;2.57;100.00;101410.03;5040401;28;20064;-63
2021/12/06 10:43:55;;;;;;;96.43;37.50;;;;;;;2.60;100.00;101408.84;5037971;28;20021;-63
2021/12/06 10:46:23;;;;;;;117.50;39.97;;;;;;;2.58;100.00;101391.88;5038359;28;20436;-63
2021/12/06 10:48:51;;;;;;;126.80;40.53;;;;;;;2.54;100.00;101388.69;5034001;28;20116;-63
2021/12/06 10:51:18;;;;;;;124.13;38.63;;;;;;;2.55;100.00;101381.38;5031898;28;20025;-63
2021/12/06 10:54:01;;;;;;;129.88;41.35;;;;;;;2.57;100.00;101379.34;5039876;28;20510;-63
2021/12/06 10:56:37;;;;;;;133.80;39.78;;;;;;;2.55;100.00;101363.25;5035076;28;20033;-63
2021/12/06 10:59:07;;;;;;;123.68;38.47;;;;;;;2.55;100.00;101360.53;5056163;28;20090;-64
2021/12/06 11:01:33;;;;;;;130.13;39.50;;;;;;;2.54;100.00;101353.44;5033612;28;20029;-63
2021/12/06 11:04:02;;;;;;;116.53;37.00;;;;;;;2.52;100.00;101341.88;5036082;28;20083;-63
2021/12/06 11:06:36;;;;;;;121.38;37.65;;;;;;;2.54;100.00;101342.59;5042781;28;20041;-63
2021/12/06 11:09:04;;;;;;;109.32;36.97;;;;;;;2.57;100.00;101336.81;5042632;28;20028;-66
2021/12/06 11:11:38;;;;;;;114.85;37.88;;;;;;;2.56;100.00;101340.53;5040511;28;20026;-64
2021/12/06 11:14:08;;;;;;;92.43;33.40;;;;;;;2.59;100.00;101334.81;5041959;28;20094;-63
2021/12/06 11:16:38;;;;;;;99.95;34.22;;;;;;;2.59;100.00;101348.34;5032043;28;20037;-63